Evergem, Belgium
Current Conditions -  °F | °C
As of 1:25 PM on Thursday 30 Oct 2014 (Local Time) from EHFS Reporting Station
Clear Clear  
Wind Chill: 15°   Ceiling: Unl
Heat Index: 15°   Visibility: 4mi
Dew Point: 14°   Wind: 13mph
Humidity: 94%   Direction: 180°S
Pressure: 30.15"   Gusts: NA
Location:  51.11°N, 3.7°E
Report Text: EHFS 301225Z AUTO 18011KT 7000 NSC 15/14 Q1021
Loading
Personal Weather Stations






























Interactive Weather Map
Tropical Storm Tracking
New forecast layout! Learn more

10-Day Weather Forecast

Advertisements
Track Severe Weather on mobile